createdAt,value
2022-11-18T00:00:56.927Z,9.78
2022-11-18T00:03:58.672Z,9.76
2022-11-18T00:07:00.381Z,9.77
2022-11-18T00:10:02.035Z,9.81
2022-11-18T00:13:23.996Z,9.79
2022-11-18T00:16:25.576Z,9.73
2022-11-18T00:19:30.295Z,9.71
2022-11-18T00:22:31.852Z,9.69
2022-11-18T00:25:34.400Z,9.66
2022-11-18T00:28:36.078Z,9.62
2022-11-18T00:31:38.285Z,9.59
2022-11-18T00:34:39.837Z,9.60
2022-11-18T00:37:41.453Z,9.57
2022-11-18T00:40:42.962Z,9.62
2022-11-18T00:43:44.574Z,9.66
2022-11-18T00:46:46.151Z,9.66
2022-11-18T00:49:47.701Z,9.64
2022-11-18T00:52:49.392Z,9.57
2022-11-18T00:55:51.084Z,9.54
2022-11-18T00:58:52.623Z,9.58
2022-11-18T01:01:54.235Z,9.54
2022-11-18T01:04:55.864Z,9.49
2022-11-18T01:07:57.502Z,9.46
2022-11-18T01:11:19.090Z,9.38
2022-11-18T01:14:20.709Z,9.32
2022-11-18T01:17:22.279Z,9.30
2022-11-18T01:20:23.772Z,9.25
2022-11-18T01:23:25.307Z,9.24
2022-11-18T01:26:26.953Z,9.20
2022-11-18T01:29:28.793Z,9.08
2022-11-18T01:32:30.378Z,8.98
2022-11-18T01:35:36.894Z,8.96
2022-11-18T01:38:38.513Z,8.97
2022-11-18T01:41:40.117Z,8.96
2022-11-18T01:45:02.193Z,8.90
2022-11-18T01:48:17.052Z,8.89
2022-11-18T01:51:23.456Z,8.91
2022-11-18T01:54:33.895Z,8.91
2022-11-18T01:57:35.634Z,8.93
2022-11-18T02:00:38.119Z,8.94
2022-11-18T02:03:40.153Z,8.86
2022-11-18T02:06:46.322Z,8.71
2022-11-18T02:09:48.265Z,8.61
2022-11-18T02:12:51.171Z,8.45
2022-11-18T02:16:00.758Z,8.39
2022-11-18T02:19:14.554Z,8.39
2022-11-18T02:22:35.189Z,8.42
2022-11-18T02:25:45.343Z,8.37
2022-11-18T02:29:20.960Z,8.33
2022-11-18T02:32:46.829Z,8.31
2022-11-18T02:35:56.840Z,8.37
2022-11-18T02:39:05.172Z,8.37
2022-11-18T02:42:11.969Z,8.32
2022-11-18T02:45:17.588Z,8.32
2022-11-18T02:48:22.661Z,8.28
2022-11-18T02:51:28.357Z,8.30
2022-11-18T02:54:30.526Z,8.32
2022-11-18T02:57:35.088Z,8.37
2022-11-18T03:00:36.692Z,8.43
2022-11-18T03:03:38.255Z,8.46
2022-11-18T03:07:02.345Z,8.41
2022-11-18T03:10:04.584Z,8.32
2022-11-18T03:13:17.496Z,8.34
2022-11-18T03:16:27.108Z,8.25
2022-11-18T03:19:40.443Z,8.26
2022-11-18T03:23:03.737Z,8.37
2022-11-18T03:26:21.052Z,8.43
2022-11-18T03:29:29.785Z,8.43
2022-11-18T03:32:37.078Z,8.47
2022-11-18T03:35:43.412Z,8.42
2022-11-18T03:38:52.178Z,8.42
2022-11-18T03:41:58.825Z,8.47
2022-11-18T03:45:10.866Z,8.42
2022-11-18T03:48:30.708Z,8.42
2022-11-18T03:51:40.456Z,8.32
2022-11-18T03:54:46.868Z,8.26
2022-11-18T03:57:54.100Z,8.31
2022-11-18T04:01:08.194Z,8.37
2022-11-18T04:04:11.654Z,8.38
2022-11-18T04:07:45.725Z,8.37
2022-11-18T04:11:33.810Z,8.38
2022-11-18T04:14:38.294Z,8.39
2022-11-18T04:17:42.697Z,8.39
2022-11-18T04:20:51.514Z,8.36
2022-11-18T04:23:53.246Z,8.33
2022-11-18T04:26:55.090Z,8.30
2022-11-18T04:29:56.718Z,8.27
2022-11-18T04:32:58.576Z,8.32
2022-11-18T04:36:00.197Z,8.36
2022-11-18T04:39:01.694Z,8.36
2022-11-18T04:42:03.465Z,8.37
2022-11-18T04:45:06.024Z,8.38
2022-11-18T04:48:07.591Z,8.41
2022-11-18T04:51:09.203Z,8.41
2022-11-18T04:54:11.999Z,8.43
2022-11-18T04:57:13.672Z,8.39
2022-11-18T05:00:15.492Z,8.41
2022-11-18T05:03:17.000Z,8.40
2022-11-18T05:06:18.539Z,8.39
2022-11-18T05:09:20.765Z,8.35
2022-11-18T05:12:40.992Z,8.26
2022-11-18T05:15:42.601Z,8.30
2022-11-18T05:18:44.279Z,8.20
2022-11-18T05:21:45.935Z,8.08
2022-11-18T05:24:47.533Z,8.02
2022-11-18T05:27:49.060Z,7.87
2022-11-18T05:30:50.595Z,7.85
2022-11-18T05:33:52.184Z,7.87
2022-11-18T05:36:53.801Z,7.88
2022-11-18T05:39:55.333Z,7.85
2022-11-18T05:43:11.991Z,7.82
2022-11-18T05:46:13.590Z,7.82
2022-11-18T05:49:20.395Z,7.85
2022-11-18T05:52:22.142Z,7.90
2022-11-18T05:55:27.679Z,7.88
2022-11-18T05:58:30.026Z,7.85
2022-11-18T06:02:01.916Z,7.84
2022-11-18T06:05:04.861Z,7.80
2022-11-18T06:08:10.780Z,7.79
2022-11-18T06:11:15.877Z,7.79
2022-11-18T06:14:22.504Z,7.78
2022-11-18T06:17:32.416Z,7.69
2022-11-18T06:20:38.079Z,7.52
2022-11-18T06:23:41.405Z,7.56
2022-11-18T06:26:43.642Z,7.55
2022-11-18T06:29:45.188Z,7.52
2022-11-18T06:32:49.486Z,7.61
2022-11-18T06:35:50.953Z,7.68
2022-11-18T06:38:52.631Z,7.71
2022-11-18T06:41:54.297Z,7.70
2022-11-18T06:44:55.932Z,7.69
2022-11-18T06:47:58.419Z,7.71
2022-11-18T06:51:00.015Z,7.73
2022-11-18T06:54:05.992Z,7.70
2022-11-18T06:57:10.698Z,7.64
2022-11-18T07:00:12.973Z,7.60
2022-11-18T07:03:14.512Z,7.60
2022-11-18T07:06:18.595Z,7.60
2022-11-18T07:09:20.306Z,7.54
2022-11-18T07:12:22.045Z,7.62
2022-11-18T07:15:23.709Z,7.61
2022-11-18T07:18:25.253Z,7.71
2022-11-18T07:21:28.369Z,7.66
2022-11-18T07:24:33.053Z,7.66
2022-11-18T07:27:34.666Z,7.66
2022-11-18T07:30:36.287Z,7.67
2022-11-18T07:33:38.974Z,7.78
2022-11-18T07:36:40.480Z,7.74
2022-11-18T07:39:42.084Z,7.71
2022-11-18T07:42:43.824Z,7.70
2022-11-18T07:45:57.408Z,7.68
2022-11-18T07:49:01.788Z,7.67
2022-11-18T07:52:03.412Z,7.80
2022-11-18T07:55:08.573Z,7.82
2022-11-18T07:58:12.892Z,7.80
2022-11-18T08:01:20.167Z,7.81
2022-11-18T08:04:21.745Z,7.90
2022-11-18T08:07:26.375Z,8.03
2022-11-18T08:10:30.714Z,8.02
2022-11-18T08:13:33.189Z,8.02
2022-11-18T08:16:45.131Z,8.10
2022-11-18T08:19:46.709Z,8.05
2022-11-18T08:22:48.266Z,8.18
2022-11-18T08:25:49.757Z,8.28
2022-11-18T08:28:51.543Z,8.26
2022-11-18T08:31:53.175Z,8.23
2022-11-18T08:34:55.667Z,8.25
2022-11-18T08:37:57.276Z,8.22
2022-11-18T08:40:58.842Z,8.16
2022-11-18T08:44:04.371Z,8.12
2022-11-18T08:47:05.917Z,8.18
2022-11-18T08:50:09.627Z,8.16
2022-11-18T08:53:11.242Z,8.10
2022-11-18T08:56:16.156Z,8.16
2022-11-18T08:59:18.210Z,8.14
2022-11-18T09:02:23.120Z,8.19
2022-11-18T09:05:24.641Z,8.31
2022-11-18T09:08:26.802Z,8.37
2022-11-18T09:11:28.416Z,8.34
2022-11-18T09:15:12.452Z,8.27
2022-11-18T09:17:51.699Z,8.30
2022-11-18T09:21:14.129Z,8.33
2022-11-18T09:24:16.681Z,8.24
2022-11-18T09:27:18.536Z,8.23
2022-11-18T09:30:20.108Z,8.15
2022-11-18T09:33:22.610Z,8.13
2022-11-18T09:36:25.261Z,8.20
2022-11-18T09:39:26.800Z,8.27
2022-11-18T09:42:50.358Z,8.27
2022-11-18T09:46:02.753Z,8.25
2022-11-18T09:49:15.033Z,8.22
2022-11-18T09:52:19.859Z,8.15
2022-11-18T09:55:21.476Z,8.14
2022-11-18T09:58:33.897Z,8.34
2022-11-18T10:01:36.798Z,8.55
2022-11-18T10:04:38.360Z,8.84
2022-11-18T10:07:59.662Z,9.03
2022-11-18T10:11:27.205Z,9.22
2022-11-18T10:14:38.105Z,9.15
2022-11-18T10:18:11.016Z,8.99
2022-11-18T10:21:51.657Z,8.94
2022-11-18T10:24:55.704Z,8.85
2022-11-18T10:27:59.576Z,8.61
2022-11-18T10:31:11.944Z,8.81
2022-11-18T10:34:18.907Z,9.12
2022-11-18T10:37:52.942Z,9.30
2022-11-18T10:40:52.836Z,9.42
2022-11-18T10:43:56.078Z,9.48
2022-11-18T10:47:16.735Z,9.31
2022-11-18T10:50:32.566Z,9.16
2022-11-18T10:53:37.072Z,9.30
2022-11-18T10:56:44.490Z,9.47
2022-11-18T10:59:55.131Z,9.64
2022-11-18T11:02:56.682Z,9.70
2022-11-18T11:06:29.041Z,9.68
2022-11-18T11:09:30.978Z,9.82
2022-11-18T11:12:56.356Z,10.11
2022-11-18T11:16:03.235Z,10.23
2022-11-18T11:19:05.866Z,10.10
2022-11-18T11:22:12.086Z,9.99
2022-11-18T11:29:19.315Z,9.88
2022-11-18T11:32:50.163Z,9.65
2022-11-18T11:36:42.783Z,9.47
2022-11-18T11:40:11.942Z,9.35
2022-11-18T11:43:19.465Z,9.51
2022-11-18T11:46:30.751Z,9.58
2022-11-18T11:49:52.239Z,9.78
2022-11-18T11:53:06.938Z,10.22
2022-11-18T11:56:26.726Z,10.49
2022-11-18T11:59:44.821Z,10.60
2022-11-18T12:03:19.047Z,11.00
2022-11-18T12:06:20.776Z,11.21
2022-11-18T12:09:39.326Z,11.37
2022-11-18T12:12:52.668Z,11.06
2022-11-18T12:16:18.718Z,11.03
2022-11-18T12:19:22.616Z,11.09
2022-11-18T12:22:24.213Z,10.91
2022-11-18T12:25:47.387Z,10.64
2022-11-18T12:28:49.058Z,10.42
2022-11-18T12:32:02.085Z,10.25
2022-11-18T12:35:12.905Z,10.29
2022-11-18T12:38:32.365Z,10.33
2022-11-18T12:41:58.876Z,10.35
2022-11-18T12:45:58.665Z,10.33
2022-11-18T12:49:21.835Z,10.12
2022-11-18T12:52:43.572Z,9.92
2022-11-18T12:55:45.188Z,9.69
2022-11-18T12:58:52.074Z,9.73
2022-11-18T13:02:11.617Z,9.64
2022-11-18T13:05:24.588Z,9.59
2022-11-18T13:08:28.977Z,9.62
2022-11-18T13:11:45.028Z,9.59
2022-11-18T13:15:05.372Z,9.80
2022-11-18T13:18:13.041Z,9.97
2022-11-18T13:21:40.136Z,10.16
2022-11-18T13:24:50.563Z,10.30
2022-11-18T13:28:03.368Z,10.25
2022-11-18T13:31:04.874Z,10.08
2022-11-18T13:34:26.711Z,9.91
2022-11-18T13:37:30.526Z,9.85
2022-11-18T13:41:04.065Z,9.87
2022-11-18T13:44:24.478Z,9.73
2022-11-18T13:47:47.733Z,9.68
2022-11-18T13:50:55.065Z,9.66
2022-11-18T13:53:56.767Z,9.56
2022-11-18T13:56:58.499Z,9.34
2022-11-18T14:00:05.765Z,9.30
2022-11-18T14:03:32.681Z,9.34
2022-11-18T14:06:35.516Z,9.22
2022-11-18T14:09:37.045Z,9.08
2022-11-18T14:12:38.614Z,9.06
2022-11-18T14:15:43.804Z,9.02
2022-11-18T14:18:48.506Z,9.01
2022-11-18T14:21:50.209Z,8.93
2022-11-18T14:25:28.380Z,8.90
2022-11-18T14:28:39.486Z,8.95
2022-11-18T14:31:42.754Z,8.94
2022-11-18T14:34:44.308Z,8.83
2022-11-18T14:37:45.918Z,8.74
2022-11-18T14:40:53.836Z,8.65
2022-11-18T14:43:55.443Z,8.69
2022-11-18T14:47:06.356Z,8.59
2022-11-18T14:50:15.019Z,8.48
2022-11-18T14:53:16.529Z,8.44
2022-11-18T14:56:21.596Z,8.49
2022-11-18T14:59:23.296Z,8.53
2022-11-18T15:02:25.066Z,8.47
2022-11-18T15:05:26.733Z,8.44
2022-11-18T15:08:28.233Z,8.44
2022-11-18T15:11:29.777Z,8.38
2022-11-18T15:14:31.718Z,8.28
2022-11-18T15:17:35.727Z,8.19
2022-11-18T15:20:37.322Z,8.06
2022-11-18T15:23:39.238Z,8.06
2022-11-18T15:26:43.481Z,8.03
2022-11-18T15:29:45.113Z,8.03
2022-11-18T15:32:46.665Z,8.03
2022-11-18T15:35:48.163Z,8.08
2022-11-18T15:38:50.878Z,8.13
2022-11-18T15:41:52.530Z,8.07
2022-11-18T15:44:54.096Z,8.07
2022-11-18T15:47:55.538Z,8.01
2022-11-18T15:50:57.041Z,8.04
2022-11-18T15:53:58.670Z,8.09
2022-11-18T15:57:00.146Z,8.12
2022-11-18T16:00:01.858Z,8.04
2022-11-18T16:03:03.409Z,7.90
2022-11-18T16:06:05.241Z,7.96
2022-11-18T16:09:07.194Z,7.98
2022-11-18T16:12:27.049Z,8.00
2022-11-18T16:15:43.329Z,7.98
2022-11-18T16:18:44.820Z,7.95
2022-11-18T16:21:49.027Z,7.99
2022-11-18T16:24:53.392Z,8.07
2022-11-18T16:27:55.934Z,8.10
2022-11-18T16:31:16.116Z,8.07
2022-11-18T16:34:26.173Z,8.07
2022-11-18T16:37:27.660Z,8.04
2022-11-18T16:40:29.311Z,8.04
2022-11-18T16:43:30.991Z,8.03
2022-11-18T16:46:34.449Z,8.02
2022-11-18T16:49:36.071Z,8.02
2022-11-18T16:52:37.885Z,7.99
2022-11-18T16:55:39.724Z,7.95
2022-11-18T16:58:41.232Z,7.94
2022-11-18T17:01:43.207Z,7.90
2022-11-18T17:04:44.784Z,7.81
2022-11-18T17:07:46.361Z,7.79
2022-11-18T17:10:47.944Z,7.55
2022-11-18T17:13:54.836Z,7.54
2022-11-18T17:16:59.272Z,7.48
2022-11-18T17:20:02.812Z,7.61
2022-11-18T17:23:04.383Z,7.73
2022-11-18T17:26:08.126Z,7.81
2022-11-18T17:29:11.037Z,7.84
2022-11-18T17:32:12.615Z,7.77
2022-11-18T17:35:14.203Z,7.63
2022-11-18T17:38:15.744Z,7.66
2022-11-18T17:41:38.287Z,7.65
2022-11-18T17:44:40.497Z,7.69
2022-11-18T17:47:42.068Z,7.70
2022-11-18T17:50:43.747Z,7.67
2022-11-18T17:53:45.275Z,7.62
2022-11-18T17:56:47.239Z,7.63
2022-11-18T17:59:48.862Z,7.57
2022-11-18T18:02:50.475Z,7.56
2022-11-18T18:05:52.028Z,7.67
2022-11-18T18:08:58.102Z,7.74
2022-11-18T18:12:00.719Z,7.75
2022-11-18T18:15:02.370Z,7.75
2022-11-18T18:18:07.048Z,7.70
2022-11-18T18:21:12.834Z,7.69
2022-11-18T18:24:17.492Z,7.73
2022-11-18T18:27:19.318Z,7.73
2022-11-18T18:30:20.828Z,7.70
2022-11-18T18:33:22.354Z,7.66
2022-11-18T18:36:25.162Z,7.58
2022-11-18T18:39:26.685Z,7.44
2022-11-18T18:42:28.379Z,7.41
2022-11-18T18:45:51.515Z,7.29
2022-11-18T18:48:53.653Z,7.15
2022-11-18T18:51:56.411Z,7.05
2022-11-18T18:54:58.184Z,6.89
2022-11-18T18:57:59.815Z,6.92
2022-11-18T19:01:09.069Z,6.98
2022-11-18T19:04:13.369Z,6.98
2022-11-18T19:07:16.648Z,6.96
2022-11-18T19:10:18.360Z,6.94
2022-11-18T19:13:26.533Z,6.93
2022-11-18T19:16:29.369Z,6.96
2022-11-18T19:19:49.435Z,6.99
2022-11-18T19:22:51.012Z,7.03
2022-11-18T19:26:01.850Z,7.03
2022-11-18T19:29:03.426Z,7.02
2022-11-18T19:32:05.244Z,7.03
2022-11-18T19:35:07.302Z,7.08
2022-11-18T19:38:08.774Z,7.13
2022-11-18T19:41:12.827Z,7.12
2022-11-18T19:44:15.004Z,7.09
2022-11-18T19:47:17.219Z,7.06
2022-11-18T19:50:18.865Z,7.08
2022-11-18T19:53:40.755Z,7.14
2022-11-18T19:56:42.370Z,7.21
2022-11-18T19:59:45.061Z,7.26
2022-11-18T20:02:47.875Z,7.25
2022-11-18T20:05:52.329Z,7.27
2022-11-18T20:08:55.754Z,7.31
2022-11-18T20:11:57.532Z,7.32
2022-11-18T20:14:59.029Z,7.33
2022-11-18T20:18:01.587Z,7.34
2022-11-18T20:21:14.763Z,7.33
2022-11-18T20:24:18.571Z,7.32
2022-11-18T20:27:21.085Z,7.30
2022-11-18T20:30:22.687Z,7.32
2022-11-18T20:33:24.468Z,7.31
2022-11-18T20:36:30.776Z,7.35
2022-11-18T20:39:32.397Z,7.32
2022-11-18T20:42:52.926Z,7.31
2022-11-18T20:45:57.538Z,7.31
2022-11-18T20:48:59.289Z,7.23
2022-11-18T20:52:01.098Z,7.15
2022-11-18T20:55:05.847Z,7.10
2022-11-18T20:58:08.095Z,7.12
2022-11-18T21:01:29.485Z,7.10
2022-11-18T21:04:31.155Z,7.16
2022-11-18T21:07:36.837Z,7.13
2022-11-18T21:10:41.974Z,7.13
2022-11-18T21:14:02.544Z,7.16
2022-11-18T21:17:04.739Z,7.06
2022-11-18T21:20:27.274Z,6.95
2022-11-18T21:23:28.783Z,6.92
2022-11-18T21:26:36.434Z,7.02
2022-11-18T21:29:38.252Z,6.93
2022-11-18T21:32:40.083Z,6.95
2022-11-18T21:35:41.586Z,7.04
2022-11-18T21:38:43.656Z,7.12
2022-11-18T21:41:53.643Z,7.14
2022-11-18T21:44:57.271Z,7.16
2022-11-18T21:48:02.289Z,7.17
2022-11-18T21:51:12.299Z,7.20
2022-11-18T21:54:15.932Z,7.15
2022-11-18T21:57:17.670Z,7.15
2022-11-18T22:00:19.299Z,7.19
2022-11-18T22:03:20.868Z,7.24
2022-11-18T22:06:24.473Z,7.26
2022-11-18T22:09:28.184Z,7.24
2022-11-18T22:12:31.708Z,7.14
2022-11-18T22:15:33.249Z,7.12
2022-11-18T22:18:37.098Z,7.12
2022-11-18T22:21:38.554Z,7.08
2022-11-18T22:24:40.070Z,7.08
2022-11-18T22:27:41.608Z,7.12
2022-11-18T22:30:43.184Z,7.17
2022-11-18T22:33:44.700Z,7.17
2022-11-18T22:36:46.307Z,7.22
2022-11-18T22:39:47.837Z,7.23
2022-11-18T22:42:49.448Z,7.19
2022-11-18T22:46:08.078Z,7.20
2022-11-18T22:49:11.175Z,7.22
2022-11-18T22:52:12.729Z,7.24
2022-11-18T22:55:14.352Z,7.28
2022-11-18T22:58:15.898Z,7.23
2022-11-18T23:01:20.031Z,7.21
2022-11-18T23:04:21.627Z,7.23
2022-11-18T23:07:23.288Z,7.24
2022-11-18T23:10:24.784Z,7.19
2022-11-18T23:13:45.079Z,7.22
2022-11-18T23:16:46.682Z,7.26
2022-11-18T23:19:49.891Z,7.28
2022-11-18T23:22:51.450Z,7.30
2022-11-18T23:25:53.317Z,7.27
2022-11-18T23:28:55.430Z,7.24
2022-11-18T23:31:57.042Z,7.17
2022-11-18T23:34:58.655Z,7.12
2022-11-18T23:38:00.296Z,7.05
2022-11-18T23:41:04.126Z,6.99
2022-11-18T23:44:06.403Z,6.96
2022-11-18T23:47:08.008Z,6.94
2022-11-18T23:50:09.762Z,6.98
2022-11-18T23:53:11.334Z,6.97
2022-11-18T23:56:17.982Z,6.96
2022-11-18T23:59:19.927Z,6.84
